sensor_id;sensor_type;location;lat;lon;timestamp;P1;durP1;ratioP1;P2;durP2;ratioP2
18596;SDS011;9428;50.950;6.912;2022-07-30T00:02:37;5.13;;;3.10;;
18596;SDS011;9428;50.950;6.912;2022-07-30T00:05:26;7.60;;;3.63;;
18596;SDS011;9428;50.950;6.912;2022-07-30T00:08:13;7.93;;;3.55;;
18596;SDS011;9428;50.950;6.912;2022-07-30T00:11:01;5.78;;;3.60;;
18596;SDS011;9428;50.950;6.912;2022-07-30T00:13:49;11.48;;;3.40;;
18596;SDS011;9428;50.950;6.912;2022-07-30T00:16:36;6.47;;;3.70;;
18596;SDS011;9428;50.950;6.912;2022-07-30T00:19:24;8.20;;;3.78;;
18596;SDS011;9428;50.950;6.912;2022-07-30T00:22:11;8.05;;;3.42;;
18596;SDS011;9428;50.950;6.912;2022-07-30T00:24:58;11.13;;;4.30;;
18596;SDS011;9428;50.950;6.912;2022-07-30T00:27:46;6.95;;;3.78;;
18596;SDS011;9428;50.950;6.912;2022-07-30T00:30:37;7.55;;;4.07;;
18596;SDS011;9428;50.950;6.912;2022-07-30T00:33:25;5.70;;;3.42;;
18596;SDS011;9428;50.950;6.912;2022-07-30T00:36:13;5.00;;;3.58;;
18596;SDS011;9428;50.950;6.912;2022-07-30T00:39:00;6.78;;;3.80;;
18596;SDS011;9428;50.950;6.912;2022-07-30T00:41:57;8.95;;;3.70;;
18596;SDS011;9428;50.950;6.912;2022-07-30T00:44:45;5.97;;;3.72;;
18596;SDS011;9428;50.950;6.912;2022-07-30T00:47:34;5.88;;;3.38;;
18596;SDS011;9428;50.950;6.912;2022-07-30T00:50:21;5.18;;;3.63;;
18596;SDS011;9428;50.950;6.912;2022-07-30T00:53:08;8.55;;;3.78;;
18596;SDS011;9428;50.950;6.912;2022-07-30T00:55:56;6.80;;;3.63;;
18596;SDS011;9428;50.950;6.912;2022-07-30T00:58:43;7.57;;;3.90;;
18596;SDS011;9428;50.950;6.912;2022-07-30T01:01:30;6.97;;;3.65;;
18596;SDS011;9428;50.950;6.912;2022-07-30T01:04:19;5.32;;;3.85;;
18596;SDS011;9428;50.950;6.912;2022-07-30T01:07:07;6.47;;;3.28;;
18596;SDS011;9428;50.950;6.912;2022-07-30T01:09:54;6.28;;;3.78;;
18596;SDS011;9428;50.950;6.912;2022-07-30T01:12:41;6.18;;;3.58;;
18596;SDS011;9428;50.950;6.912;2022-07-30T01:15:29;11.20;;;4.57;;
18596;SDS011;9428;50.950;6.912;2022-07-30T01:18:17;9.25;;;4.03;;
18596;SDS011;9428;50.950;6.912;2022-07-30T01:21:07;9.32;;;3.95;;
18596;SDS011;9428;50.950;6.912;2022-07-30T01:23:57;7.75;;;4.20;;
18596;SDS011;9428;50.950;6.912;2022-07-30T01:26:53;7.68;;;4.50;;
18596;SDS011;9428;50.950;6.912;2022-07-30T01:29:41;9.55;;;4.78;;
18596;SDS011;9428;50.950;6.912;2022-07-30T01:32:31;9.43;;;4.50;;
18596;SDS011;9428;50.950;6.912;2022-07-30T01:35:21;10.85;;;4.68;;
18596;SDS011;9428;50.950;6.912;2022-07-30T01:38:10;6.68;;;4.70;;
18596;SDS011;9428;50.950;6.912;2022-07-30T01:41:00;6.68;;;4.80;;
18596;SDS011;9428;50.950;6.912;2022-07-30T01:43:51;5.72;;;4.80;;
18596;SDS011;9428;50.950;6.912;2022-07-30T01:46:40;8.02;;;4.55;;
18596;SDS011;9428;50.950;6.912;2022-07-30T01:49:39;8.95;;;4.95;;
18596;SDS011;9428;50.950;6.912;2022-07-30T01:52:27;5.45;;;4.80;;
18596;SDS011;9428;50.950;6.912;2022-07-30T01:55:19;14.27;;;5.25;;
18596;SDS011;9428;50.950;6.912;2022-07-30T01:58:10;8.50;;;5.18;;
18596;SDS011;9428;50.950;6.912;2022-07-30T02:00:59;13.00;;;4.80;;
18596;SDS011;9428;50.950;6.912;2022-07-30T02:03:46;9.18;;;5.25;;
18596;SDS011;9428;50.950;6.912;2022-07-30T02:06:36;10.02;;;5.40;;
18596;SDS011;9428;50.950;6.912;2022-07-30T02:09:27;11.45;;;5.63;;
18596;SDS011;9428;50.950;6.912;2022-07-30T02:12:19;6.35;;;5.13;;
18596;SDS011;9428;50.950;6.912;2022-07-30T02:15:18;9.43;;;4.85;;
18596;SDS011;9428;50.950;6.912;2022-07-30T02:18:12;6.93;;;5.60;;
18596;SDS011;9428;50.950;6.912;2022-07-30T02:21:03;10.88;;;5.90;;
18596;SDS011;9428;50.950;6.912;2022-07-30T02:23:54;6.63;;;5.53;;
18596;SDS011;9428;50.950;6.912;2022-07-30T02:26:42;13.05;;;6.13;;
18596;SDS011;9428;50.950;6.912;2022-07-30T02:29:31;7.50;;;5.68;;
18596;SDS011;9428;50.950;6.912;2022-07-30T02:32:21;10.38;;;6.20;;
18596;SDS011;9428;50.950;6.912;2022-07-30T02:35:12;7.68;;;5.65;;
18596;SDS011;9428;50.950;6.912;2022-07-30T02:38:04;10.85;;;6.53;;
18596;SDS011;9428;50.950;6.912;2022-07-30T02:40:54;9.68;;;6.22;;
18596;SDS011;9428;50.950;6.912;2022-07-30T02:43:44;8.57;;;6.25;;
18596;SDS011;9428;50.950;6.912;2022-07-30T02:46:33;7.18;;;6.05;;
18596;SDS011;9428;50.950;6.912;2022-07-30T02:49:23;10.20;;;6.57;;
18596;SDS011;9428;50.950;6.912;2022-07-30T02:52:14;11.00;;;6.45;;
18596;SDS011;9428;50.950;6.912;2022-07-30T02:55:02;8.57;;;6.13;;
18596;SDS011;9428;50.950;6.912;2022-07-30T02:57:52;11.60;;;7.47;;
18596;SDS011;9428;50.950;6.912;2022-07-30T03:00:40;14.65;;;7.72;;
18596;SDS011;9428;50.950;6.912;2022-07-30T03:03:28;12.32;;;6.78;;
18596;SDS011;9428;50.950;6.912;2022-07-30T03:06:17;8.68;;;6.47;;
18596;SDS011;9428;50.950;6.912;2022-07-30T03:09:06;11.80;;;7.18;;
18596;SDS011;9428;50.950;6.912;2022-07-30T03:11:55;8.93;;;6.45;;
18596;SDS011;9428;50.950;6.912;2022-07-30T03:14:44;12.52;;;7.38;;
18596;SDS011;9428;50.950;6.912;2022-07-30T03:17:34;10.60;;;6.85;;
18596;SDS011;9428;50.950;6.912;2022-07-30T03:20:25;14.02;;;7.05;;
18596;SDS011;9428;50.950;6.912;2022-07-30T03:23:15;8.50;;;6.75;;
18596;SDS011;9428;50.950;6.912;2022-07-30T03:26:04;14.15;;;7.45;;
18596;SDS011;9428;50.950;6.912;2022-07-30T03:28:52;11.77;;;6.82;;
18596;SDS011;9428;50.950;6.912;2022-07-30T03:31:42;16.25;;;7.80;;
18596;SDS011;9428;50.950;6.912;2022-07-30T03:34:30;9.95;;;6.85;;
18596;SDS011;9428;50.950;6.912;2022-07-30T03:37:18;10.25;;;6.80;;
18596;SDS011;9428;50.950;6.912;2022-07-30T03:40:06;13.60;;;7.47;;
18596;SDS011;9428;50.950;6.912;2022-07-30T03:42:54;14.00;;;7.63;;
18596;SDS011;9428;50.950;6.912;2022-07-30T03:45:43;10.90;;;8.00;;
18596;SDS011;9428;50.950;6.912;2022-07-30T03:48:33;12.38;;;7.43;;
18596;SDS011;9428;50.950;6.912;2022-07-30T03:51:21;14.57;;;7.15;;
18596;SDS011;9428;50.950;6.912;2022-07-30T03:54:08;13.00;;;8.40;;
18596;SDS011;9428;50.950;6.912;2022-07-30T03:56:56;10.65;;;7.68;;
18596;SDS011;9428;50.950;6.912;2022-07-30T03:59:45;12.82;;;7.60;;
18596;SDS011;9428;50.950;6.912;2022-07-30T04:02:39;14.07;;;7.80;;
18596;SDS011;9428;50.950;6.912;2022-07-30T04:05:28;10.63;;;7.22;;
18596;SDS011;9428;50.950;6.912;2022-07-30T04:08:15;9.38;;;7.40;;
18596;SDS011;9428;50.950;6.912;2022-07-30T04:11:03;11.98;;;7.32;;
18596;SDS011;9428;50.950;6.912;2022-07-30T04:13:50;12.75;;;7.85;;
18596;SDS011;9428;50.950;6.912;2022-07-30T04:16:38;14.55;;;7.65;;
18596;SDS011;9428;50.950;6.912;2022-07-30T04:19:33;12.80;;;7.57;;
18596;SDS011;9428;50.950;6.912;2022-07-30T04:22:26;11.82;;;7.50;;
18596;SDS011;9428;50.950;6.912;2022-07-30T04:25:15;11.40;;;8.35;;
18596;SDS011;9428;50.950;6.912;2022-07-30T04:28:05;10.75;;;7.50;;
18596;SDS011;9428;50.950;6.912;2022-07-30T04:30:54;10.50;;;7.97;;
18596;SDS011;9428;50.950;6.912;2022-07-30T04:33:43;13.90;;;7.65;;
18596;SDS011;9428;50.950;6.912;2022-07-30T04:36:31;10.18;;;7.40;;
18596;SDS011;9428;50.950;6.912;2022-07-30T04:39:21;14.00;;;7.82;;
18596;SDS011;9428;50.950;6.912;2022-07-30T04:42:08;11.75;;;7.85;;
18596;SDS011;9428;50.950;6.912;2022-07-30T04:44:56;11.90;;;7.47;;
18596;SDS011;9428;50.950;6.912;2022-07-30T04:47:43;11.02;;;7.30;;
18596;SDS011;9428;50.950;6.912;2022-07-30T04:50:31;14.00;;;8.00;;
18596;SDS011;9428;50.950;6.912;2022-07-30T04:53:21;11.48;;;7.85;;
18596;SDS011;9428;50.950;6.912;2022-07-30T04:56:10;12.20;;;7.70;;
18596;SDS011;9428;50.950;6.912;2022-07-30T04:58:59;12.40;;;8.70;;
18596;SDS011;9428;50.950;6.912;2022-07-30T05:01:48;11.82;;;8.13;;
18596;SDS011;9428;50.950;6.912;2022-07-30T05:04:36;14.35;;;8.07;;
18596;SDS011;9428;50.950;6.912;2022-07-30T05:07:25;14.05;;;8.55;;
18596;SDS011;9428;50.950;6.912;2022-07-30T05:10:14;16.45;;;8.30;;
18596;SDS011;9428;50.950;6.912;2022-07-30T05:13:04;15.20;;;8.48;;
18596;SDS011;9428;50.950;6.912;2022-07-30T05:15:56;17.10;;;8.15;;
18596;SDS011;9428;50.950;6.912;2022-07-30T05:18:44;19.05;;;9.02;;
18596;SDS011;9428;50.950;6.912;2022-07-30T05:21:31;13.65;;;8.65;;
18596;SDS011;9428;50.950;6.912;2022-07-30T05:24:18;16.45;;;9.15;;
18596;SDS011;9428;50.950;6.912;2022-07-30T05:27:06;13.13;;;8.95;;
18596;SDS011;9428;50.950;6.912;2022-07-30T05:29:55;14.38;;;9.65;;
18596;SDS011;9428;50.950;6.912;2022-07-30T05:32:42;17.05;;;10.18;;
18596;SDS011;9428;50.950;6.912;2022-07-30T05:35:29;13.95;;;9.70;;
18596;SDS011;9428;50.950;6.912;2022-07-30T05:38:17;22.27;;;9.85;;
18596;SDS011;9428;50.950;6.912;2022-07-30T05:41:04;14.35;;;9.75;;
18596;SDS011;9428;50.950;6.912;2022-07-30T05:43:51;22.10;;;11.10;;
18596;SDS011;9428;50.950;6.912;2022-07-30T05:46:40;17.73;;;11.10;;
18596;SDS011;9428;50.950;6.912;2022-07-30T05:49:27;16.90;;;10.93;;
18596;SDS011;9428;50.950;6.912;2022-07-30T05:52:14;19.35;;;12.60;;
18596;SDS011;9428;50.950;6.912;2022-07-30T05:55:02;21.63;;;12.38;;
18596;SDS011;9428;50.950;6.912;2022-07-30T05:57:49;21.55;;;13.10;;
18596;SDS011;9428;50.950;6.912;2022-07-30T06:00:36;24.52;;;14.48;;
18596;SDS011;9428;50.950;6.912;2022-07-30T06:03:25;25.70;;;13.88;;
18596;SDS011;9428;50.950;6.912;2022-07-30T06:06:12;27.90;;;17.13;;
18596;SDS011;9428;50.950;6.912;2022-07-30T06:09:00;28.77;;;19.10;;
18596;SDS011;9428;50.950;6.912;2022-07-30T06:11:47;37.13;;;19.65;;
18596;SDS011;9428;50.950;6.912;2022-07-30T06:14:34;34.70;;;22.15;;
18596;SDS011;9428;50.950;6.912;2022-07-30T06:17:21;40.58;;;23.38;;
18596;SDS011;9428;50.950;6.912;2022-07-30T06:20:10;46.22;;;24.83;;
18596;SDS011;9428;50.950;6.912;2022-07-30T06:22:58;45.92;;;27.30;;
18596;SDS011;9428;50.950;6.912;2022-07-30T06:25:46;60.90;;;34.40;;
18596;SDS011;9428;50.950;6.912;2022-07-30T06:28:33;52.28;;;32.45;;
18596;SDS011;9428;50.950;6.912;2022-07-30T06:31:20;48.58;;;30.23;;
18596;SDS011;9428;50.950;6.912;2022-07-30T06:34:08;52.45;;;33.92;;
18596;SDS011;9428;50.950;6.912;2022-07-30T06:36:56;56.17;;;34.03;;
18596;SDS011;9428;50.950;6.912;2022-07-30T06:39:44;53.22;;;31.13;;
18596;SDS011;9428;50.950;6.912;2022-07-30T06:42:31;41.63;;;26.92;;
18596;SDS011;9428;50.950;6.912;2022-07-30T06:45:18;47.17;;;29.25;;
18596;SDS011;9428;50.950;6.912;2022-07-30T06:48:05;48.25;;;31.83;;
18596;SDS011;9428;50.950;6.912;2022-07-30T06:50:53;46.17;;;30.88;;
18596;SDS011;9428;50.950;6.912;2022-07-30T06:53:41;53.08;;;34.28;;
18596;SDS011;9428;50.950;6.912;2022-07-30T06:56:30;50.20;;;32.58;;
18596;SDS011;9428;50.950;6.912;2022-07-30T06:59:17;54.65;;;34.25;;
18596;SDS011;9428;50.950;6.912;2022-07-30T07:02:04;49.35;;;35.53;;
18596;SDS011;9428;50.950;6.912;2022-07-30T07:04:52;52.78;;;33.83;;
18596;SDS011;9428;50.950;6.912;2022-07-30T07:07:39;54.78;;;30.73;;
18596;SDS011;9428;50.950;6.912;2022-07-30T07:10:28;47.67;;;28.98;;
18596;SDS011;9428;50.950;6.912;2022-07-30T07:13:17;43.75;;;29.48;;
18596;SDS011;9428;50.950;6.912;2022-07-30T07:16:04;43.55;;;29.40;;
18596;SDS011;9428;50.950;6.912;2022-07-30T07:18:51;42.38;;;31.10;;
18596;SDS011;9428;50.950;6.912;2022-07-30T07:21:39;36.38;;;27.23;;
18596;SDS011;9428;50.950;6.912;2022-07-30T07:24:26;36.33;;;23.27;;
18596;SDS011;9428;50.950;6.912;2022-07-30T07:27:15;37.33;;;23.42;;
18596;SDS011;9428;50.950;6.912;2022-07-30T07:30:02;32.75;;;19.35;;
18596;SDS011;9428;50.950;6.912;2022-07-30T07:32:50;32.38;;;17.30;;
18596;SDS011;9428;50.950;6.912;2022-07-30T07:35:37;27.30;;;16.05;;
18596;SDS011;9428;50.950;6.912;2022-07-30T07:38:25;26.67;;;16.10;;
18596;SDS011;9428;50.950;6.912;2022-07-30T07:41:12;21.13;;;14.23;;
18596;SDS011;9428;50.950;6.912;2022-07-30T07:44:01;22.08;;;14.45;;
18596;SDS011;9428;50.950;6.912;2022-07-30T07:46:48;23.98;;;15.93;;
18596;SDS011;9428;50.950;6.912;2022-07-30T07:49:35;30.13;;;15.55;;
18596;SDS011;9428;50.950;6.912;2022-07-30T07:52:23;26.73;;;15.18;;
18596;SDS011;9428;50.950;6.912;2022-07-30T07:55:10;26.25;;;15.57;;
18596;SDS011;9428;50.950;6.912;2022-07-30T07:57:57;24.17;;;13.65;;
18596;SDS011;9428;50.950;6.912;2022-07-30T08:00:46;18.92;;;12.70;;
18596;SDS011;9428;50.950;6.912;2022-07-30T08:03:33;34.13;;;17.30;;
18596;SDS011;9428;50.950;6.912;2022-07-30T08:06:20;24.65;;;16.95;;
18596;SDS011;9428;50.950;6.912;2022-07-30T08:09:08;25.95;;;16.83;;
18596;SDS011;9428;50.950;6.912;2022-07-30T08:11:55;21.73;;;16.58;;
18596;SDS011;9428;50.950;6.912;2022-07-30T08:14:42;25.05;;;15.98;;
18596;SDS011;9428;50.950;6.912;2022-07-30T08:17:31;29.90;;;16.23;;
18596;SDS011;9428;50.950;6.912;2022-07-30T08:20:18;26.35;;;15.63;;
18596;SDS011;9428;50.950;6.912;2022-07-30T08:23:06;25.40;;;16.38;;
18596;SDS011;9428;50.950;6.912;2022-07-30T08:25:55;29.08;;;15.32;;
18596;SDS011;9428;50.950;6.912;2022-07-30T08:28:42;25.85;;;15.85;;
18596;SDS011;9428;50.950;6.912;2022-07-30T08:31:30;23.40;;;15.50;;
18596;SDS011;9428;50.950;6.912;2022-07-30T08:34:19;22.02;;;15.20;;
18596;SDS011;9428;50.950;6.912;2022-07-30T08:37:06;22.83;;;15.73;;
18596;SDS011;9428;50.950;6.912;2022-07-30T08:39:53;23.40;;;13.80;;
18596;SDS011;9428;50.950;6.912;2022-07-30T08:42:40;19.75;;;11.73;;
18596;SDS011;9428;50.950;6.912;2022-07-30T08:45:28;20.27;;;11.68;;
18596;SDS011;9428;50.950;6.912;2022-07-30T08:48:16;20.10;;;12.13;;
18596;SDS011;9428;50.950;6.912;2022-07-30T08:51:08;19.60;;;13.18;;
18596;SDS011;9428;50.950;6.912;2022-07-30T08:53:56;25.73;;;12.75;;
18596;SDS011;9428;50.950;6.912;2022-07-30T08:56:45;19.88;;;12.30;;
18596;SDS011;9428;50.950;6.912;2022-07-30T08:59:33;19.92;;;13.18;;
18596;SDS011;9428;50.950;6.912;2022-07-30T09:02:23;15.90;;;11.00;;
18596;SDS011;9428;50.950;6.912;2022-07-30T09:05:10;23.60;;;12.88;;
18596;SDS011;9428;50.950;6.912;2022-07-30T09:07:59;15.23;;;11.30;;
18596;SDS011;9428;50.950;6.912;2022-07-30T09:10:47;19.98;;;10.82;;
18596;SDS011;9428;50.950;6.912;2022-07-30T09:13:35;19.67;;;12.77;;
18596;SDS011;9428;50.950;6.912;2022-07-30T09:16:24;16.58;;;12.27;;
18596;SDS011;9428;50.950;6.912;2022-07-30T09:19:13;22.25;;;12.00;;
18596;SDS011;9428;50.950;6.912;2022-07-30T09:22:01;17.15;;;12.70;;
18596;SDS011;9428;50.950;6.912;2022-07-30T09:24:51;15.73;;;12.05;;
18596;SDS011;9428;50.950;6.912;2022-07-30T09:27:45;18.30;;;12.95;;
18596;SDS011;9428;50.950;6.912;2022-07-30T09:30:44;18.13;;;10.85;;
18596;SDS011;9428;50.950;6.912;2022-07-30T09:33:34;19.95;;;11.57;;
18596;SDS011;9428;50.950;6.912;2022-07-30T09:36:23;18.35;;;10.95;;
18596;SDS011;9428;50.950;6.912;2022-07-30T09:39:26;15.18;;;12.27;;
18596;SDS011;9428;50.950;6.912;2022-07-30T09:42:17;15.23;;;11.68;;
18596;SDS011;9428;50.950;6.912;2022-07-30T09:45:06;16.05;;;11.80;;
18596;SDS011;9428;50.950;6.912;2022-07-30T09:47:55;17.70;;;11.88;;
18596;SDS011;9428;50.950;6.912;2022-07-30T09:50:46;15.93;;;11.30;;
18596;SDS011;9428;50.950;6.912;2022-07-30T09:53:34;13.52;;;10.55;;
18596;SDS011;9428;50.950;6.912;2022-07-30T09:56:22;19.10;;;11.73;;
18596;SDS011;9428;50.950;6.912;2022-07-30T09:59:25;14.75;;;11.88;;
18596;SDS011;9428;50.950;6.912;2022-07-30T10:02:13;15.82;;;11.32;;
18596;SDS011;9428;50.950;6.912;2022-07-30T10:05:08;15.60;;;9.82;;
18596;SDS011;9428;50.950;6.912;2022-07-30T10:07:57;13.27;;;9.27;;
18596;SDS011;9428;50.950;6.912;2022-07-30T10:10:45;15.18;;;8.98;;
18596;SDS011;9428;50.950;6.912;2022-07-30T10:13:34;12.00;;;8.90;;
18596;SDS011;9428;50.950;6.912;2022-07-30T10:16:25;14.43;;;9.32;;
18596;SDS011;9428;50.950;6.912;2022-07-30T10:19:13;17.23;;;8.90;;
18596;SDS011;9428;50.950;6.912;2022-07-30T10:22:01;12.55;;;9.18;;
18596;SDS011;9428;50.950;6.912;2022-07-30T10:24:49;18.10;;;8.23;;
18596;SDS011;9428;50.950;6.912;2022-07-30T10:27:37;8.75;;;6.10;;
18596;SDS011;9428;50.950;6.912;2022-07-30T10:30:25;12.63;;;7.05;;
18596;SDS011;9428;50.950;6.912;2022-07-30T10:33:14;15.02;;;6.35;;
18596;SDS011;9428;50.950;6.912;2022-07-30T10:36:03;8.52;;;6.03;;
18596;SDS011;9428;50.950;6.912;2022-07-30T10:38:50;14.70;;;6.50;;
18596;SDS011;9428;50.950;6.912;2022-07-30T10:41:41;9.98;;;6.18;;
18596;SDS011;9428;50.950;6.912;2022-07-30T10:47:58;10.93;;;5.82;;
18596;SDS011;9428;50.950;6.912;2022-07-30T10:50:51;7.25;;;5.35;;
18596;SDS011;9428;50.950;6.912;2022-07-30T10:53:39;8.23;;;4.97;;
18596;SDS011;9428;50.950;6.912;2022-07-30T10:56:30;11.95;;;5.53;;
18596;SDS011;9428;50.950;6.912;2022-07-30T10:59:17;8.50;;;4.47;;
18596;SDS011;9428;50.950;6.912;2022-07-30T11:02:08;8.23;;;4.57;;
18596;SDS011;9428;50.950;6.912;2022-07-30T11:17:57;10.95;;;4.72;;
18596;SDS011;9428;50.950;6.912;2022-07-30T11:24:03;6.65;;;5.63;;
18596;SDS011;9428;50.950;6.912;2022-07-30T11:26:50;8.40;;;4.72;;
18596;SDS011;9428;50.950;6.912;2022-07-30T11:29:38;5.78;;;4.20;;
18596;SDS011;9428;50.950;6.912;2022-07-30T11:32:28;5.78;;;3.80;;
18596;SDS011;9428;50.950;6.912;2022-07-30T11:35:17;9.07;;;4.72;;
18596;SDS011;9428;50.950;6.912;2022-07-30T11:38:06;12.70;;;6.32;;
18596;SDS011;9428;50.950;6.912;2022-07-30T11:41:09;9.40;;;5.22;;
18596;SDS011;9428;50.950;6.912;2022-07-30T11:47:14;7.80;;;5.30;;
18596;SDS011;9428;50.950;6.912;2022-07-30T11:50:01;10.30;;;4.68;;
18596;SDS011;9428;50.950;6.912;2022-07-30T11:52:51;10.73;;;3.90;;
18596;SDS011;9428;50.950;6.912;2022-07-30T11:55:39;9.10;;;3.80;;
18596;SDS011;9428;50.950;6.912;2022-07-30T11:58:30;7.28;;;4.25;;
18596;SDS011;9428;50.950;6.912;2022-07-30T12:01:19;11.45;;;3.50;;
18596;SDS011;9428;50.950;6.912;2022-07-30T12:04:07;9.80;;;3.47;;
18596;SDS011;9428;50.950;6.912;2022-07-30T12:06:54;6.90;;;2.90;;
18596;SDS011;9428;50.950;6.912;2022-07-30T12:09:42;8.85;;;2.97;;
18596;SDS011;9428;50.950;6.912;2022-07-30T12:12:29;6.75;;;3.30;;
18596;SDS011;9428;50.950;6.912;2022-07-30T12:15:30;7.18;;;3.33;;
18596;SDS011;9428;50.950;6.912;2022-07-30T12:18:22;7.50;;;3.30;;
18596;SDS011;9428;50.950;6.912;2022-07-30T12:21:10;8.27;;;3.97;;
18596;SDS011;9428;50.950;6.912;2022-07-30T12:24:01;6.40;;;3.55;;
18596;SDS011;9428;50.950;6.912;2022-07-30T12:26:51;6.13;;;3.50;;
18596;SDS011;9428;50.950;6.912;2022-07-30T12:29:49;7.60;;;3.63;;
18596;SDS011;9428;50.950;6.912;2022-07-30T12:32:38;8.20;;;4.25;;
18596;SDS011;9428;50.950;6.912;2022-07-30T12:35:40;4.82;;;2.95;;
18596;SDS011;9428;50.950;6.912;2022-07-30T12:38:28;5.72;;;2.85;;
18596;SDS011;9428;50.950;6.912;2022-07-30T12:41:15;6.22;;;2.92;;
18596;SDS011;9428;50.950;6.912;2022-07-30T12:44:02;6.90;;;2.72;;
18596;SDS011;9428;50.950;6.912;2022-07-30T12:46:49;7.47;;;2.75;;
18596;SDS011;9428;50.950;6.912;2022-07-30T12:49:38;10.50;;;3.08;;
18596;SDS011;9428;50.950;6.912;2022-07-30T12:52:26;3.10;;;2.35;;
18596;SDS011;9428;50.950;6.912;2022-07-30T12:55:14;4.25;;;2.47;;
18596;SDS011;9428;50.950;6.912;2022-07-30T12:58:03;10.15;;;2.25;;
18596;SDS011;9428;50.950;6.912;2022-07-30T13:00:51;6.32;;;3.15;;
18596;SDS011;9428;50.950;6.912;2022-07-30T13:03:39;5.82;;;2.75;;
18596;SDS011;9428;50.950;6.912;2022-07-30T13:06:28;4.18;;;2.33;;
18596;SDS011;9428;50.950;6.912;2022-07-30T13:09:16;4.63;;;2.72;;
18596;SDS011;9428;50.950;6.912;2022-07-30T13:12:05;5.72;;;3.30;;
18596;SDS011;9428;50.950;6.912;2022-07-30T13:14:56;4.57;;;2.55;;
18596;SDS011;9428;50.950;6.912;2022-07-30T13:17:45;6.05;;;2.67;;
18596;SDS011;9428;50.950;6.912;2022-07-30T13:20:32;5.72;;;2.60;;
18596;SDS011;9428;50.950;6.912;2022-07-30T13:23:21;8.57;;;2.85;;
18596;SDS011;9428;50.950;6.912;2022-07-30T13:26:09;6.53;;;2.17;;
18596;SDS011;9428;50.950;6.912;2022-07-30T13:28:56;5.03;;;2.47;;
18596;SDS011;9428;50.950;6.912;2022-07-30T13:31:44;5.82;;;3.20;;
18596;SDS011;9428;50.950;6.912;2022-07-30T13:34:31;5.40;;;2.58;;
18596;SDS011;9428;50.950;6.912;2022-07-30T13:37:18;2.92;;;1.98;;
18596;SDS011;9428;50.950;6.912;2022-07-30T13:40:08;5.70;;;1.95;;
18596;SDS011;9428;50.950;6.912;2022-07-30T13:42:56;4.80;;;2.53;;
18596;SDS011;9428;50.950;6.912;2022-07-30T13:45:43;5.65;;;2.47;;
18596;SDS011;9428;50.950;6.912;2022-07-30T13:48:31;9.05;;;2.60;;
18596;SDS011;9428;50.950;6.912;2022-07-30T13:51:20;6.75;;;2.75;;
18596;SDS011;9428;50.950;6.912;2022-07-30T13:54:07;4.20;;;2.65;;
18596;SDS011;9428;50.950;6.912;2022-07-30T13:56:56;6.18;;;2.85;;
18596;SDS011;9428;50.950;6.912;2022-07-30T13:59:43;6.45;;;2.92;;
18596;SDS011;9428;50.950;6.912;2022-07-30T14:02:30;5.43;;;2.58;;
18596;SDS011;9428;50.950;6.912;2022-07-30T14:05:18;6.72;;;2.72;;
18596;SDS011;9428;50.950;6.912;2022-07-30T14:08:05;5.07;;;2.38;;
18596;SDS011;9428;50.950;6.912;2022-07-30T14:10:53;2.97;;;2.40;;
18596;SDS011;9428;50.950;6.912;2022-07-30T14:13:42;3.95;;;2.20;;
18596;SDS011;9428;50.950;6.912;2022-07-30T14:16:30;2.92;;;2.20;;
18596;SDS011;9428;50.950;6.912;2022-07-30T14:19:17;3.13;;;2.30;;
18596;SDS011;9428;50.950;6.912;2022-07-30T14:22:05;6.28;;;2.45;;
18596;SDS011;9428;50.950;6.912;2022-07-30T14:24:52;3.83;;;2.30;;
18596;SDS011;9428;50.950;6.912;2022-07-30T14:27:39;7.85;;;2.47;;
18596;SDS011;9428;50.950;6.912;2022-07-30T14:30:28;3.83;;;2.55;;
18596;SDS011;9428;50.950;6.912;2022-07-30T14:33:15;3.17;;;2.00;;
18596;SDS011;9428;50.950;6.912;2022-07-30T14:36:03;3.25;;;1.80;;
18596;SDS011;9428;50.950;6.912;2022-07-30T14:38:50;5.57;;;1.67;;
18596;SDS011;9428;50.950;6.912;2022-07-30T14:41:37;2.65;;;1.58;;
18596;SDS011;9428;50.950;6.912;2022-07-30T14:44:25;2.10;;;1.55;;
18596;SDS011;9428;50.950;6.912;2022-07-30T14:47:14;2.45;;;1.80;;
18596;SDS011;9428;50.950;6.912;2022-07-30T14:50:01;3.00;;;1.88;;
18596;SDS011;9428;50.950;6.912;2022-07-30T14:52:49;8.65;;;2.22;;
18596;SDS011;9428;50.950;6.912;2022-07-30T14:55:36;4.07;;;1.75;;
18596;SDS011;9428;50.950;6.912;2022-07-30T14:58:23;3.25;;;1.58;;
18596;SDS011;9428;50.950;6.912;2022-07-30T15:01:12;2.78;;;1.40;;
18596;SDS011;9428;50.950;6.912;2022-07-30T15:04:01;4.32;;;1.67;;
18596;SDS011;9428;50.950;6.912;2022-07-30T15:06:48;3.25;;;1.88;;
18596;SDS011;9428;50.950;6.912;2022-07-30T15:09:35;1.73;;;1.58;;
18596;SDS011;9428;50.950;6.912;2022-07-30T15:12:22;4.07;;;1.67;;
18596;SDS011;9428;50.950;6.912;2022-07-30T15:15:10;2.08;;;1.40;;
18596;SDS011;9428;50.950;6.912;2022-07-30T15:17:57;3.67;;;1.85;;
18596;SDS011;9428;50.950;6.912;2022-07-30T15:20:46;4.38;;;1.70;;
18596;SDS011;9428;50.950;6.912;2022-07-30T15:23:33;2.28;;;1.42;;
18596;SDS011;9428;50.950;6.912;2022-07-30T15:26:20;3.08;;;1.70;;
18596;SDS011;9428;50.950;6.912;2022-07-30T15:29:08;3.20;;;1.70;;
18596;SDS011;9428;50.950;6.912;2022-07-30T15:31:55;2.90;;;1.88;;
18596;SDS011;9428;50.950;6.912;2022-07-30T15:34:44;3.15;;;1.90;;
18596;SDS011;9428;50.950;6.912;2022-07-30T15:37:32;3.58;;;1.73;;
18596;SDS011;9428;50.950;6.912;2022-07-30T15:40:19;2.30;;;1.20;;
18596;SDS011;9428;50.950;6.912;2022-07-30T15:43:07;2.92;;;1.60;;
18596;SDS011;9428;50.950;6.912;2022-07-30T15:45:54;1.98;;;1.20;;
18596;SDS011;9428;50.950;6.912;2022-07-30T15:48:42;1.75;;;1.10;;
18596;SDS011;9428;50.950;6.912;2022-07-30T15:51:30;2.42;;;1.50;;
18596;SDS011;9428;50.950;6.912;2022-07-30T15:54:19;3.17;;;1.40;;
18596;SDS011;9428;50.950;6.912;2022-07-30T15:57:08;4.57;;;1.85;;
18596;SDS011;9428;50.950;6.912;2022-07-30T15:59:55;2.88;;;1.50;;
18596;SDS011;9428;50.950;6.912;2022-07-30T16:02:42;3.90;;;1.45;;
18596;SDS011;9428;50.950;6.912;2022-07-30T16:05:30;3.92;;;1.70;;
18596;SDS011;9428;50.950;6.912;2022-07-30T16:08:17;3.38;;;1.50;;
18596;SDS011;9428;50.950;6.912;2022-07-30T16:11:06;1.55;;;1.38;;
18596;SDS011;9428;50.950;6.912;2022-07-30T16:13:53;4.93;;;1.55;;
18596;SDS011;9428;50.950;6.912;2022-07-30T16:16:40;3.13;;;1.70;;
18596;SDS011;9428;50.950;6.912;2022-07-30T16:19:28;3.05;;;1.10;;
18596;SDS011;9428;50.950;6.912;2022-07-30T16:22:15;2.75;;;1.88;;
18596;SDS011;9428;50.950;6.912;2022-07-30T16:25:02;2.65;;;1.60;;
18596;SDS011;9428;50.950;6.912;2022-07-30T16:27:51;2.67;;;1.35;;
18596;SDS011;9428;50.950;6.912;2022-07-30T16:30:38;3.03;;;1.38;;
18596;SDS011;9428;50.950;6.912;2022-07-30T16:33:26;2.40;;;1.35;;
18596;SDS011;9428;50.950;6.912;2022-07-30T16:36:14;3.38;;;1.45;;
18596;SDS011;9428;50.950;6.912;2022-07-30T16:39:01;3.45;;;1.88;;
18596;SDS011;9428;50.950;6.912;2022-07-30T16:41:49;3.28;;;1.45;;
18596;SDS011;9428;50.950;6.912;2022-07-30T16:44:37;3.22;;;1.83;;
18596;SDS011;9428;50.950;6.912;2022-07-30T16:47:25;2.88;;;1.90;;
18596;SDS011;9428;50.950;6.912;2022-07-30T16:50:12;3.00;;;1.92;;
18596;SDS011;9428;50.950;6.912;2022-07-30T16:52:59;2.72;;;1.63;;
18596;SDS011;9428;50.950;6.912;2022-07-30T16:55:46;5.10;;;1.98;;
18596;SDS011;9428;50.950;6.912;2022-07-30T16:58:34;2.97;;;1.63;;
18596;SDS011;9428;50.950;6.912;2022-07-30T17:01:22;2.28;;;1.60;;
18596;SDS011;9428;50.950;6.912;2022-07-30T17:04:09;6.15;;;1.70;;
18596;SDS011;9428;50.950;6.912;2022-07-30T17:06:57;7.13;;;1.75;;
18596;SDS011;9428;50.950;6.912;2022-07-30T17:09:44;3.22;;;2.22;;
18596;SDS011;9428;50.950;6.912;2022-07-30T17:12:32;2.33;;;1.60;;
18596;SDS011;9428;50.950;6.912;2022-07-30T17:15:19;3.70;;;1.77;;
18596;SDS011;9428;50.950;6.912;2022-07-30T17:18:08;5.22;;;1.65;;
18596;SDS011;9428;50.950;6.912;2022-07-30T17:20:55;3.83;;;1.90;;
18596;SDS011;9428;50.950;6.912;2022-07-30T17:23:43;1.92;;;1.50;;